sensor_id;sensor_type;location;lat;lon;timestamp;P1;durP1;ratioP1;P2;durP2;ratioP2
21901;SDS011;11115;46.038;14.612;2023-08-21T00:01:18;2.92;;;2.08;;
21901;SDS011;11115;46.038;14.612;2023-08-21T00:03:49;5.32;;;3.15;;
21901;SDS011;11115;46.038;14.612;2023-08-21T00:06:36;4.38;;;2.55;;
21901;SDS011;11115;46.038;14.612;2023-08-21T00:09:06;5.28;;;3.17;;
21901;SDS011;11115;46.038;14.612;2023-08-21T00:14:06;2.85;;;2.30;;
21901;SDS011;11115;46.038;14.612;2023-08-21T00:16:45;3.92;;;2.90;;
21901;SDS011;11115;46.038;14.612;2023-08-21T00:19:19;3.28;;;2.47;;
21901;SDS011;11115;46.038;14.612;2023-08-21T00:21:55;5.50;;;2.83;;
21901;SDS011;11115;46.038;14.612;2023-08-21T00:24:27;2.10;;;1.90;;
21901;SDS011;11115;46.038;14.612;2023-08-21T00:27:00;5.72;;;2.60;;
21901;SDS011;11115;46.038;14.612;2023-08-21T00:29:38;4.30;;;2.67;;
21901;SDS011;11115;46.038;14.612;2023-08-21T00:32:25;6.68;;;2.80;;
21901;SDS011;11115;46.038;14.612;2023-08-21T00:35:00;5.43;;;3.20;;
21901;SDS011;11115;46.038;14.612;2023-08-21T00:37:38;3.65;;;2.03;;
21901;SDS011;11115;46.038;14.612;2023-08-21T00:40:18;3.33;;;2.15;;
21901;SDS011;11115;46.038;14.612;2023-08-21T00:42:49;4.13;;;2.33;;
21901;SDS011;11115;46.038;14.612;2023-08-21T00:45:29;3.90;;;2.70;;
21901;SDS011;11115;46.038;14.612;2023-08-21T00:48:01;4.57;;;2.92;;
21901;SDS011;11115;46.038;14.612;2023-08-21T00:50:39;3.97;;;2.38;;
21901;SDS011;11115;46.038;14.612;2023-08-21T00:53:12;5.15;;;2.50;;
21901;SDS011;11115;46.038;14.612;2023-08-21T00:55:59;3.65;;;2.50;;
21901;SDS011;11115;46.038;14.612;2023-08-21T00:58:37;3.35;;;2.38;;
21901;SDS011;11115;46.038;14.612;2023-08-21T01:01:09;3.88;;;2.53;;
21901;SDS011;11115;46.038;14.612;2023-08-21T01:03:53;4.75;;;2.58;;
21901;SDS011;11115;46.038;14.612;2023-08-21T01:06:22;3.63;;;2.40;;
21901;SDS011;11115;46.038;14.612;2023-08-21T01:15:13;3.65;;;2.30;;
21901;SDS011;11115;46.038;14.612;2023-08-21T01:17:55;3.72;;;2.10;;
21901;SDS011;11115;46.038;14.612;2023-08-21T01:20:38;4.10;;;2.45;;
21901;SDS011;11115;46.038;14.612;2023-08-21T01:23:32;3.65;;;2.13;;
21901;SDS011;11115;46.038;14.612;2023-08-21T01:26:14;3.28;;;1.95;;
21901;SDS011;11115;46.038;14.612;2023-08-21T01:28:58;5.40;;;2.65;;
21901;SDS011;11115;46.038;14.612;2023-08-21T01:31:38;4.60;;;2.45;;
21901;SDS011;11115;46.038;14.612;2023-08-21T01:34:18;3.38;;;2.40;;
21901;SDS011;11115;46.038;14.612;2023-08-21T01:39:35;3.47;;;2.30;;
21901;SDS011;11115;46.038;14.612;2023-08-21T01:42:07;4.00;;;2.47;;
21901;SDS011;11115;46.038;14.612;2023-08-21T01:44:44;6.82;;;3.33;;
21901;SDS011;11115;46.038;14.612;2023-08-21T01:47:22;6.10;;;2.75;;
21901;SDS011;11115;46.038;14.612;2023-08-21T01:49:54;5.10;;;2.90;;
21901;SDS011;11115;46.038;14.612;2023-08-21T01:52:40;5.25;;;2.97;;
21901;SDS011;11115;46.038;14.612;2023-08-21T01:55:16;4.05;;;2.30;;
21901;SDS011;11115;46.038;14.612;2023-08-21T01:57:45;5.75;;;2.65;;
21901;SDS011;11115;46.038;14.612;2023-08-21T02:00:18;3.92;;;2.65;;
21901;SDS011;11115;46.038;14.612;2023-08-21T02:02:52;6.97;;;2.67;;
21901;SDS011;11115;46.038;14.612;2023-08-21T02:05:28;4.97;;;2.72;;
21901;SDS011;11115;46.038;14.612;2023-08-21T02:08:01;4.70;;;2.53;;
21901;SDS011;11115;46.038;14.612;2023-08-21T02:10:37;3.42;;;2.47;;
21901;SDS011;11115;46.038;14.612;2023-08-21T02:13:22;3.75;;;2.25;;
21901;SDS011;11115;46.038;14.612;2023-08-21T02:16:01;3.63;;;2.65;;
21901;SDS011;11115;46.038;14.612;2023-08-21T02:18:43;3.10;;;2.10;;
21901;SDS011;11115;46.038;14.612;2023-08-21T02:21:14;4.50;;;2.60;;
21901;SDS011;11115;46.038;14.612;2023-08-21T02:23:43;6.15;;;2.08;;
21901;SDS011;11115;46.038;14.612;2023-08-21T02:26:15;4.20;;;2.63;;
21901;SDS011;11115;46.038;14.612;2023-08-21T02:28:50;4.45;;;2.60;;
21901;SDS011;11115;46.038;14.612;2023-08-21T02:31:26;3.90;;;2.28;;
21901;SDS011;11115;46.038;14.612;2023-08-21T02:33:56;3.08;;;2.00;;
21901;SDS011;11115;46.038;14.612;2023-08-21T02:36:27;5.22;;;2.15;;
21901;SDS011;11115;46.038;14.612;2023-08-21T02:39:12;5.60;;;2.90;;
21901;SDS011;11115;46.038;14.612;2023-08-21T02:41:45;4.18;;;2.88;;
21901;SDS011;11115;46.038;14.612;2023-08-21T02:44:23;5.10;;;2.70;;
21901;SDS011;11115;46.038;14.612;2023-08-21T02:46:54;5.90;;;2.75;;
21901;SDS011;11115;46.038;14.612;2023-08-21T02:49:28;3.33;;;2.33;;
21901;SDS011;11115;46.038;14.612;2023-08-21T02:52:02;4.90;;;2.38;;
21901;SDS011;11115;46.038;14.612;2023-08-21T02:54:41;5.07;;;2.42;;
21901;SDS011;11115;46.038;14.612;2023-08-21T02:57:10;5.57;;;3.15;;
21901;SDS011;11115;46.038;14.612;2023-08-21T02:59:45;5.25;;;2.63;;
21901;SDS011;11115;46.038;14.612;2023-08-21T03:02:23;4.28;;;2.78;;
21901;SDS011;11115;46.038;14.612;2023-08-21T03:04:54;3.03;;;2.38;;
21901;SDS011;11115;46.038;14.612;2023-08-21T03:07:26;2.75;;;2.13;;
21901;SDS011;11115;46.038;14.612;2023-08-21T03:09:59;9.30;;;3.63;;
21901;SDS011;11115;46.038;14.612;2023-08-21T03:12:29;3.17;;;2.17;;
21901;SDS011;11115;46.038;14.612;2023-08-21T03:15:00;3.22;;;2.13;;
21901;SDS011;11115;46.038;14.612;2023-08-21T03:17:37;3.30;;;2.17;;
21901;SDS011;11115;46.038;14.612;2023-08-21T03:20:09;4.32;;;2.35;;
21901;SDS011;11115;46.038;14.612;2023-08-21T03:22:40;3.80;;;2.33;;
21901;SDS011;11115;46.038;14.612;2023-08-21T03:25:11;3.70;;;2.10;;
21901;SDS011;11115;46.038;14.612;2023-08-21T03:27:51;4.03;;;2.47;;
21901;SDS011;11115;46.038;14.612;2023-08-21T03:30:44;4.18;;;2.75;;
21901;SDS011;11115;46.038;14.612;2023-08-21T03:33:17;2.75;;;1.77;;
21901;SDS011;11115;46.038;14.612;2023-08-21T03:35:53;3.47;;;1.80;;
21901;SDS011;11115;46.038;14.612;2023-08-21T03:38:25;6.90;;;3.00;;
21901;SDS011;11115;46.038;14.612;2023-08-21T03:41:07;7.75;;;2.28;;
21901;SDS011;11115;46.038;14.612;2023-08-21T03:43:43;3.70;;;2.28;;
21901;SDS011;11115;46.038;14.612;2023-08-21T03:46:16;4.63;;;2.40;;
21901;SDS011;11115;46.038;14.612;2023-08-21T03:49:00;3.30;;;2.10;;
21901;SDS011;11115;46.038;14.612;2023-08-21T03:51:38;4.88;;;2.65;;
21901;SDS011;11115;46.038;14.612;2023-08-21T03:54:17;3.67;;;2.05;;
21901;SDS011;11115;46.038;14.612;2023-08-21T03:59:22;5.85;;;3.13;;
21901;SDS011;11115;46.038;14.612;2023-08-21T04:02:06;5.80;;;2.53;;
21901;SDS011;11115;46.038;14.612;2023-08-21T04:04:37;4.85;;;2.80;;
21901;SDS011;11115;46.038;14.612;2023-08-21T04:07:24;4.15;;;2.13;;
21901;SDS011;11115;46.038;14.612;2023-08-21T04:09:55;3.47;;;2.25;;
21901;SDS011;11115;46.038;14.612;2023-08-21T04:12:29;5.07;;;2.88;;
21901;SDS011;11115;46.038;14.612;2023-08-21T04:15:06;5.53;;;3.08;;
21901;SDS011;11115;46.038;14.612;2023-08-21T04:17:45;4.68;;;2.63;;
21901;SDS011;11115;46.038;14.612;2023-08-21T04:20:21;5.27;;;3.37;;
21901;SDS011;11115;46.038;14.612;2023-08-21T04:22:53;5.93;;;3.35;;
21901;SDS011;11115;46.038;14.612;2023-08-21T04:25:28;4.38;;;2.75;;
21901;SDS011;11115;46.038;14.612;2023-08-21T04:27:59;4.97;;;3.10;;
21901;SDS011;11115;46.038;14.612;2023-08-21T04:30:34;3.33;;;2.53;;
21901;SDS011;11115;46.038;14.612;2023-08-21T04:33:06;3.42;;;2.50;;
21901;SDS011;11115;46.038;14.612;2023-08-21T04:35:45;11.98;;;4.05;;
21901;SDS011;11115;46.038;14.612;2023-08-21T04:38:13;4.88;;;2.45;;
21901;SDS011;11115;46.038;14.612;2023-08-21T04:40:46;4.50;;;2.53;;
21901;SDS011;11115;46.038;14.612;2023-08-21T04:43:21;3.55;;;2.60;;
21901;SDS011;11115;46.038;14.612;2023-08-21T04:45:53;3.50;;;2.05;;
21901;SDS011;11115;46.038;14.612;2023-08-21T04:48:27;5.45;;;3.33;;
21901;SDS011;11115;46.038;14.612;2023-08-21T04:50:58;5.63;;;3.47;;
21901;SDS011;11115;46.038;14.612;2023-08-21T04:53:44;3.28;;;2.28;;
21901;SDS011;11115;46.038;14.612;2023-08-21T04:56:30;5.15;;;2.78;;
21901;SDS011;11115;46.038;14.612;2023-08-21T04:59:03;4.07;;;2.33;;
21901;SDS011;11115;46.038;14.612;2023-08-21T05:01:41;3.92;;;2.22;;
21901;SDS011;11115;46.038;14.612;2023-08-21T05:04:15;4.40;;;2.65;;
21901;SDS011;11115;46.038;14.612;2023-08-21T05:06:50;4.97;;;2.83;;
21901;SDS011;11115;46.038;14.612;2023-08-21T05:11:58;3.55;;;2.60;;
21901;SDS011;11115;46.038;14.612;2023-08-21T05:14:30;7.60;;;2.97;;
21901;SDS011;11115;46.038;14.612;2023-08-21T05:16:59;3.03;;;2.15;;
21901;SDS011;11115;46.038;14.612;2023-08-21T05:19:31;6.10;;;3.03;;
21901;SDS011;11115;46.038;14.612;2023-08-21T05:22:01;4.00;;;2.70;;
21901;SDS011;11115;46.038;14.612;2023-08-21T05:24:39;5.70;;;3.00;;
21901;SDS011;11115;46.038;14.612;2023-08-21T05:27:10;9.85;;;3.17;;
21901;SDS011;11115;46.038;14.612;2023-08-21T05:29:40;4.65;;;2.72;;
21901;SDS011;11115;46.038;14.612;2023-08-21T05:32:20;5.28;;;3.10;;
21901;SDS011;11115;46.038;14.612;2023-08-21T05:34:53;7.22;;;4.18;;
21901;SDS011;11115;46.038;14.612;2023-08-21T05:37:34;6.32;;;3.08;;
21901;SDS011;11115;46.038;14.612;2023-08-21T05:40:07;4.72;;;2.67;;
21901;SDS011;11115;46.038;14.612;2023-08-21T05:42:52;5.28;;;3.13;;
21901;SDS011;11115;46.038;14.612;2023-08-21T05:47:56;5.60;;;3.15;;
21901;SDS011;11115;46.038;14.612;2023-08-21T05:50:30;4.43;;;3.08;;
21901;SDS011;11115;46.038;14.612;2023-08-21T05:53:16;5.45;;;3.17;;
21901;SDS011;11115;46.038;14.612;2023-08-21T05:55:47;7.85;;;3.47;;
21901;SDS011;11115;46.038;14.612;2023-08-21T05:58:19;5.90;;;3.55;;
21901;SDS011;11115;46.038;14.612;2023-08-21T06:00:55;5.72;;;3.15;;
21901;SDS011;11115;46.038;14.612;2023-08-21T06:03:29;5.45;;;3.60;;
21901;SDS011;11115;46.038;14.612;2023-08-21T06:06:16;5.70;;;3.40;;
21901;SDS011;11115;46.038;14.612;2023-08-21T06:08:47;10.98;;;3.67;;
21901;SDS011;11115;46.038;14.612;2023-08-21T06:11:17;6.38;;;3.72;;
21901;SDS011;11115;46.038;14.612;2023-08-21T06:13:50;6.57;;;3.45;;
21901;SDS011;11115;46.038;14.612;2023-08-21T06:16:30;5.88;;;3.50;;
21901;SDS011;11115;46.038;14.612;2023-08-21T06:19:09;8.93;;;3.88;;
21901;SDS011;11115;46.038;14.612;2023-08-21T06:21:52;8.60;;;3.72;;
21901;SDS011;11115;46.038;14.612;2023-08-21T06:24:25;8.32;;;4.00;;
21901;SDS011;11115;46.038;14.612;2023-08-21T06:27:01;6.25;;;3.58;;
21901;SDS011;11115;46.038;14.612;2023-08-21T06:29:36;6.68;;;4.10;;
21901;SDS011;11115;46.038;14.612;2023-08-21T06:32:28;8.70;;;4.53;;
21901;SDS011;11115;46.038;14.612;2023-08-21T06:35:00;9.90;;;4.78;;
21901;SDS011;11115;46.038;14.612;2023-08-21T06:37:44;8.00;;;4.47;;
21901;SDS011;11115;46.038;14.612;2023-08-21T06:40:18;7.68;;;4.07;;
21901;SDS011;11115;46.038;14.612;2023-08-21T06:42:48;7.95;;;3.88;;
21901;SDS011;11115;46.038;14.612;2023-08-21T06:45:44;4.40;;;2.83;;
21901;SDS011;11115;46.038;14.612;2023-08-21T06:48:28;8.75;;;3.90;;
21901;SDS011;11115;46.038;14.612;2023-08-21T06:51:03;7.18;;;3.92;;
21901;SDS011;11115;46.038;14.612;2023-08-21T06:53:37;7.13;;;4.35;;
21901;SDS011;11115;46.038;14.612;2023-08-21T06:56:21;5.68;;;3.40;;
21901;SDS011;11115;46.038;14.612;2023-08-21T06:58:56;5.85;;;3.33;;
21901;SDS011;11115;46.038;14.612;2023-08-21T07:01:29;5.53;;;3.65;;
21901;SDS011;11115;46.038;14.612;2023-08-21T07:04:00;9.13;;;4.15;;
21901;SDS011;11115;46.038;14.612;2023-08-21T07:06:39;7.05;;;3.40;;
21901;SDS011;11115;46.038;14.612;2023-08-21T07:09:10;5.80;;;3.33;;
21901;SDS011;11115;46.038;14.612;2023-08-21T07:11:44;6.63;;;3.60;;
21901;SDS011;11115;46.038;14.612;2023-08-21T07:14:14;4.55;;;3.20;;
21901;SDS011;11115;46.038;14.612;2023-08-21T07:16:47;8.63;;;4.05;;
21901;SDS011;11115;46.038;14.612;2023-08-21T07:19:29;6.88;;;3.78;;
21901;SDS011;11115;46.038;14.612;2023-08-21T07:22:02;7.70;;;4.03;;
21901;SDS011;11115;46.038;14.612;2023-08-21T07:24:40;6.80;;;3.80;;
21901;SDS011;11115;46.038;14.612;2023-08-21T07:27:13;5.57;;;3.17;;
21901;SDS011;11115;46.038;14.612;2023-08-21T07:29:42;6.15;;;2.95;;
21901;SDS011;11115;46.038;14.612;2023-08-21T07:32:17;5.22;;;3.05;;
21901;SDS011;11115;46.038;14.612;2023-08-21T07:34:45;10.95;;;3.78;;
21901;SDS011;11115;46.038;14.612;2023-08-21T07:37:26;3.95;;;2.67;;
21901;SDS011;11115;46.038;14.612;2023-08-21T07:39:57;5.40;;;3.13;;
21901;SDS011;11115;46.038;14.612;2023-08-21T07:42:31;6.00;;;3.67;;
21901;SDS011;11115;46.038;14.612;2023-08-21T07:47:37;7.82;;;2.90;;
21901;SDS011;11115;46.038;14.612;2023-08-21T07:50:40;5.25;;;2.92;;
21901;SDS011;11115;46.038;14.612;2023-08-21T07:53:22;5.60;;;3.15;;
21901;SDS011;11115;46.038;14.612;2023-08-21T07:55:58;7.95;;;3.53;;
21901;SDS011;11115;46.038;14.612;2023-08-21T07:58:37;3.28;;;2.45;;
21901;SDS011;11115;46.038;14.612;2023-08-21T08:01:07;3.50;;;2.50;;
21901;SDS011;11115;46.038;14.612;2023-08-21T08:03:42;4.00;;;2.25;;
21901;SDS011;11115;46.038;14.612;2023-08-21T08:06:13;5.55;;;2.60;;
21901;SDS011;11115;46.038;14.612;2023-08-21T08:08:43;4.60;;;2.22;;
21901;SDS011;11115;46.038;14.612;2023-08-21T08:11:18;4.60;;;2.67;;
21901;SDS011;11115;46.038;14.612;2023-08-21T08:13:59;3.63;;;2.43;;
21901;SDS011;11115;46.038;14.612;2023-08-21T08:16:35;3.22;;;1.90;;
21901;SDS011;11115;46.038;14.612;2023-08-21T08:19:04;2.90;;;2.20;;
21901;SDS011;11115;46.038;14.612;2023-08-21T08:21:45;2.50;;;2.13;;
21901;SDS011;11115;46.038;14.612;2023-08-21T08:24:16;2.60;;;2.13;;
21901;SDS011;11115;46.038;14.612;2023-08-21T08:26:48;4.80;;;2.42;;
21901;SDS011;11115;46.038;14.612;2023-08-21T08:29:25;5.03;;;2.63;;
21901;SDS011;11115;46.038;14.612;2023-08-21T08:32:01;3.03;;;2.25;;
21901;SDS011;11115;46.038;14.612;2023-08-21T08:34:30;4.50;;;2.17;;
21901;SDS011;11115;46.038;14.612;2023-08-21T08:37:09;2.70;;;2.08;;
21901;SDS011;11115;46.038;14.612;2023-08-21T08:39:45;4.80;;;2.83;;
21901;SDS011;11115;46.038;14.612;2023-08-21T08:42:17;4.45;;;2.67;;
21901;SDS011;11115;46.038;14.612;2023-08-21T08:44:58;3.55;;;1.98;;
21901;SDS011;11115;46.038;14.612;2023-08-21T08:47:35;2.83;;;2.08;;
21901;SDS011;11115;46.038;14.612;2023-08-21T08:50:09;3.65;;;2.13;;
21901;SDS011;11115;46.038;14.612;2023-08-21T08:53:00;4.07;;;1.92;;
21901;SDS011;11115;46.038;14.612;2023-08-21T08:55:44;5.20;;;2.45;;
21901;SDS011;11115;46.038;14.612;2023-08-21T08:58:25;4.32;;;2.53;;
21901;SDS011;11115;46.038;14.612;2023-08-21T09:01:02;2.42;;;1.75;;
21901;SDS011;11115;46.038;14.612;2023-08-21T09:03:40;9.10;;;4.00;;
21901;SDS011;11115;46.038;14.612;2023-08-21T09:06:26;8.13;;;4.00;;
21901;SDS011;11115;46.038;14.612;2023-08-21T09:09:04;13.77;;;6.18;;
21901;SDS011;11115;46.038;14.612;2023-08-21T09:11:43;6.65;;;3.65;;
21901;SDS011;11115;46.038;14.612;2023-08-21T09:14:31;7.18;;;3.53;;
21901;SDS011;11115;46.038;14.612;2023-08-21T09:17:06;5.05;;;3.03;;
21901;SDS011;11115;46.038;14.612;2023-08-21T09:19:39;7.78;;;3.08;;
21901;SDS011;11115;46.038;14.612;2023-08-21T09:22:17;5.40;;;3.72;;
21901;SDS011;11115;46.038;14.612;2023-08-21T09:25:00;3.25;;;2.08;;
21901;SDS011;11115;46.038;14.612;2023-08-21T09:27:43;4.32;;;2.20;;
21901;SDS011;11115;46.038;14.612;2023-08-21T09:30:17;4.55;;;2.45;;
21901;SDS011;11115;46.038;14.612;2023-08-21T09:32:53;4.50;;;2.70;;
21901;SDS011;11115;46.038;14.612;2023-08-21T09:35:38;4.15;;;2.55;;
21901;SDS011;11115;46.038;14.612;2023-08-21T09:38:22;4.22;;;3.00;;
21901;SDS011;11115;46.038;14.612;2023-08-21T09:40:59;3.45;;;2.28;;
21901;SDS011;11115;46.038;14.612;2023-08-21T09:43:42;8.75;;;2.40;;
21901;SDS011;11115;46.038;14.612;2023-08-21T09:46:23;2.33;;;1.77;;
21901;SDS011;11115;46.038;14.612;2023-08-21T09:49:00;3.83;;;2.33;;
21901;SDS011;11115;46.038;14.612;2023-08-21T09:51:31;4.00;;;2.35;;
21901;SDS011;11115;46.038;14.612;2023-08-21T09:54:04;4.95;;;2.28;;
21901;SDS011;11115;46.038;14.612;2023-08-21T09:56:37;4.05;;;2.08;;
21901;SDS011;11115;46.038;14.612;2023-08-21T09:59:13;3.53;;;2.83;;
21901;SDS011;11115;46.038;14.612;2023-08-21T10:01:44;3.38;;;2.42;;
21901;SDS011;11115;46.038;14.612;2023-08-21T10:04:35;3.38;;;2.20;;
21901;SDS011;11115;46.038;14.612;2023-08-21T10:07:14;5.22;;;2.67;;
21901;SDS011;11115;46.038;14.612;2023-08-21T10:09:52;2.80;;;1.92;;
21901;SDS011;11115;46.038;14.612;2023-08-21T10:12:23;3.65;;;2.20;;
21901;SDS011;11115;46.038;14.612;2023-08-21T10:14:54;3.45;;;2.22;;
21901;SDS011;11115;46.038;14.612;2023-08-21T10:17:29;5.40;;;2.72;;
21901;SDS011;11115;46.038;14.612;2023-08-21T10:20:09;8.38;;;3.10;;
21901;SDS011;11115;46.038;14.612;2023-08-21T10:22:52;5.65;;;2.65;;
21901;SDS011;11115;46.038;14.612;2023-08-21T10:25:25;7.53;;;2.53;;
21901;SDS011;11115;46.038;14.612;2023-08-21T10:28:09;4.30;;;2.15;;
21901;SDS011;11115;46.038;14.612;2023-08-21T10:30:44;3.65;;;2.22;;
21901;SDS011;11115;46.038;14.612;2023-08-21T10:33:17;2.80;;;1.70;;
21901;SDS011;11115;46.038;14.612;2023-08-21T10:39:55;3.53;;;1.52;;
21901;SDS011;11115;46.038;14.612;2023-08-21T10:42:39;4.32;;;1.77;;
21901;SDS011;11115;46.038;14.612;2023-08-21T10:45:13;2.92;;;1.67;;
21901;SDS011;11115;46.038;14.612;2023-08-21T10:47:44;2.10;;;1.63;;
21901;SDS011;11115;46.038;14.612;2023-08-21T10:52:58;3.60;;;1.50;;
21901;SDS011;11115;46.038;14.612;2023-08-21T10:55:26;2.92;;;1.67;;
21901;SDS011;11115;46.038;14.612;2023-08-21T10:58:17;2.15;;;1.13;;
21901;SDS011;11115;46.038;14.612;2023-08-21T11:01:01;3.40;;;1.50;;
21901;SDS011;11115;46.038;14.612;2023-08-21T11:03:33;1.48;;;1.15;;
21901;SDS011;11115;46.038;14.612;2023-08-21T11:06:10;1.52;;;1.02;;
21901;SDS011;11115;46.038;14.612;2023-08-21T11:08:43;2.33;;;1.20;;
21901;SDS011;11115;46.038;14.612;2023-08-21T11:11:18;1.65;;;1.13;;
21901;SDS011;11115;46.038;14.612;2023-08-21T11:14:04;2.60;;;1.30;;
21901;SDS011;11115;46.038;14.612;2023-08-21T11:16:47;1.73;;;1.23;;
21901;SDS011;11115;46.038;14.612;2023-08-21T11:19:24;2.33;;;1.58;;
21901;SDS011;11115;46.038;14.612;2023-08-21T11:22:06;1.67;;;1.38;;
21901;SDS011;11115;46.038;14.612;2023-08-21T11:24:42;1.42;;;1.33;;
21901;SDS011;11115;46.038;14.612;2023-08-21T11:27:30;1.75;;;1.30;;
21901;SDS011;11115;46.038;14.612;2023-08-21T11:30:10;1.70;;;1.00;;
21901;SDS011;11115;46.038;14.612;2023-08-21T11:32:46;2.08;;;1.30;;
21901;SDS011;11115;46.038;14.612;2023-08-21T11:35:22;2.30;;;1.80;;
21901;SDS011;11115;46.038;14.612;2023-08-21T11:37:54;1.40;;;1.30;;
21901;SDS011;11115;46.038;14.612;2023-08-21T11:40:27;1.65;;;1.08;;
21901;SDS011;11115;46.038;14.612;2023-08-21T11:43:02;2.35;;;1.27;;
21901;SDS011;11115;46.038;14.612;2023-08-21T11:45:34;1.52;;;1.27;;
21901;SDS011;11115;46.038;14.612;2023-08-21T11:48:25;1.07;;;0.97;;
21901;SDS011;11115;46.038;14.612;2023-08-21T11:51:02;3.28;;;1.33;;
21901;SDS011;11115;46.038;14.612;2023-08-21T11:53:40;2.00;;;1.23;;
21901;SDS011;11115;46.038;14.612;2023-08-21T11:56:20;1.40;;;1.02;;
21901;SDS011;11115;46.038;14.612;2023-08-21T11:59:07;2.15;;;1.38;;
21901;SDS011;11115;46.038;14.612;2023-08-21T12:01:39;1.35;;;0.95;;
21901;SDS011;11115;46.038;14.612;2023-08-21T12:04:15;2.60;;;1.13;;
21901;SDS011;11115;46.038;14.612;2023-08-21T12:06:57;3.78;;;1.00;;
21901;SDS011;11115;46.038;14.612;2023-08-21T12:09:37;2.83;;;1.25;;
21901;SDS011;11115;46.038;14.612;2023-08-21T12:12:15;0.80;;;0.77;;
21901;SDS011;11115;46.038;14.612;2023-08-21T12:14:48;2.53;;;1.73;;
21901;SDS011;11115;46.038;14.612;2023-08-21T12:17:24;1.15;;;1.05;;
21901;SDS011;11115;46.038;14.612;2023-08-21T12:19:56;1.90;;;1.00;;
21901;SDS011;11115;46.038;14.612;2023-08-21T12:22:39;0.73;;;0.68;;
21901;SDS011;11115;46.038;14.612;2023-08-21T12:25:19;1.17;;;0.98;;
21901;SDS011;11115;46.038;14.612;2023-08-21T12:27:54;2.22;;;1.33;;
21901;SDS011;11115;46.038;14.612;2023-08-21T12:30:36;1.83;;;0.90;;
21901;SDS011;11115;46.038;14.612;2023-08-21T12:33:08;2.50;;;1.63;;
21901;SDS011;11115;46.038;14.612;2023-08-21T12:35:51;2.15;;;1.13;;
21901;SDS011;11115;46.038;14.612;2023-08-21T12:38:25;1.85;;;1.15;;
21901;SDS011;11115;46.038;14.612;2023-08-21T12:41:01;2.00;;;1.42;;
21901;SDS011;11115;46.038;14.612;2023-08-21T12:43:33;1.13;;;0.90;;
21901;SDS011;11115;46.038;14.612;2023-08-21T12:46:06;1.48;;;0.70;;
21901;SDS011;11115;46.038;14.612;2023-08-21T12:48:41;0.90;;;0.90;;
21901;SDS011;11115;46.038;14.612;2023-08-21T12:51:11;1.60;;;0.85;;
21901;SDS011;11115;46.038;14.612;2023-08-21T12:53:44;1.33;;;1.23;;
21901;SDS011;11115;46.038;14.612;2023-08-21T12:56:20;2.17;;;1.15;;
21901;SDS011;11115;46.038;14.612;2023-08-21T12:58:53;1.02;;;1.00;;
21901;SDS011;11115;46.038;14.612;2023-08-21T13:01:31;2.22;;;1.15;;
21901;SDS011;11115;46.038;14.612;2023-08-21T13:04:11;1.95;;;0.70;;
21901;SDS011;11115;46.038;14.612;2023-08-21T13:06:40;0.93;;;0.85;;
21901;SDS011;11115;46.038;14.612;2023-08-21T13:09:13;1.25;;;0.90;;
21901;SDS011;11115;46.038;14.612;2023-08-21T13:14:23;0.90;;;0.68;;
21901;SDS011;11115;46.038;14.612;2023-08-21T13:16:51;1.92;;;1.00;;
21901;SDS011;11115;46.038;14.612;2023-08-21T13:19:23;2.63;;;1.23;;
21901;SDS011;11115;46.038;14.612;2023-08-21T13:21:56;1.35;;;1.10;;
21901;SDS011;11115;46.038;14.612;2023-08-21T13:24:28;1.40;;;1.08;;
21901;SDS011;11115;46.038;14.612;2023-08-21T13:27:03;0.80;;;0.80;;
21901;SDS011;11115;46.038;14.612;2023-08-21T13:29:41;1.17;;;0.70;;
21901;SDS011;11115;46.038;14.612;2023-08-21T13:32:14;1.27;;;0.85;;
21901;SDS011;11115;46.038;14.612;2023-08-21T13:34:45;1.20;;;0.93;;
21901;SDS011;11115;46.038;14.612;2023-08-21T13:37:17;1.52;;;0.70;;
21901;SDS011;11115;46.038;14.612;2023-08-21T13:39:49;6.15;;;1.10;;
21901;SDS011;11115;46.038;14.612;2023-08-21T13:42:22;2.10;;;1.25;;
21901;SDS011;11115;46.038;14.612;2023-08-21T13:44:58;1.23;;;0.98;;
21901;SDS011;11115;46.038;14.612;2023-08-21T13:47:45;1.20;;;1.10;;
21901;SDS011;11115;46.038;14.612;2023-08-21T13:50:19;0.82;;;0.75;;
21901;SDS011;11115;46.038;14.612;2023-08-21T13:52:49;1.27;;;0.85;;
21901;SDS011;11115;46.038;14.612;2023-08-21T13:55:26;1.20;;;1.10;;
21901;SDS011;11115;46.038;14.612;2023-08-21T13:57:57;1.27;;;1.02;;
21901;SDS011;11115;46.038;14.612;2023-08-21T14:00:33;2.08;;;1.50;;
21901;SDS011;11115;46.038;14.612;2023-08-21T14:03:03;2.50;;;1.02;;
21901;SDS011;11115;46.038;14.612;2023-08-21T14:05:38;0.98;;;0.85;;
21901;SDS011;11115;46.038;14.612;2023-08-21T14:08:25;1.83;;;0.90;;
21901;SDS011;11115;46.038;14.612;2023-08-21T14:11:01;1.10;;;0.90;;
21901;SDS011;11115;46.038;14.612;2023-08-21T14:13:39;1.85;;;0.93;;
21901;SDS011;11115;46.038;14.612;2023-08-21T14:16:25;1.95;;;0.93;;
21901;SDS011;11115;46.038;14.612;2023-08-21T14:18:58;1.65;;;1.02;;
21901;SDS011;11115;46.038;14.612;2023-08-21T14:21:31;0.93;;;0.82;;
21901;SDS011;11115;46.038;14.612;2023-08-21T14:24:09;1.77;;;1.10;;
21901;SDS011;11115;46.038;14.612;2023-08-21T14:26:40;1.80;;;1.23;;
21901;SDS011;11115;46.038;14.612;2023-08-21T14:29:20;1.17;;;1.00;;
21901;SDS011;11115;46.038;14.612;2023-08-21T14:31:54;1.42;;;0.98;;
21901;SDS011;11115;46.038;14.612;2023-08-21T14:34:24;3.55;;;1.40;;
21901;SDS011;11115;46.038;14.612;2023-08-21T14:36:55;2.72;;;1.17;;
21901;SDS011;11115;46.038;14.612;2023-08-21T14:39:29;4.30;;;1.40;;
21901;SDS011;11115;46.038;14.612;2023-08-21T14:42:15;0.70;;;0.70;;
21901;SDS011;11115;46.038;14.612;2023-08-21T14:44:58;0.88;;;0.80;;
21901;SDS011;11115;46.038;14.612;2023-08-21T14:47:31;2.10;;;1.13;;
21901;SDS011;11115;46.038;14.612;2023-08-21T14:50:37;1.42;;;0.98;;
21901;SDS011;11115;46.038;14.612;2023-08-21T14:53:08;0.80;;;0.80;;
21901;SDS011;11115;46.038;14.612;2023-08-21T14:55:42;3.78;;;1.17;;
21901;SDS011;11115;46.038;14.612;2023-08-21T14:58:14;0.85;;;0.63;;
21901;SDS011;11115;46.038;14.612;2023-08-21T15:03:20;1.65;;;1.00;;
21901;SDS011;11115;46.038;14.612;2023-08-21T15:05:54;4.78;;;1.27;;
21901;SDS011;11115;46.038;14.612;2023-08-21T15:08:29;1.63;;;1.17;;
21901;SDS011;11115;46.038;14.612;2023-08-21T15:11:03;2.30;;;1.00;;
21901;SDS011;11115;46.038;14.612;2023-08-21T15:13:37;2.72;;;1.20;;
21901;SDS011;11115;46.038;14.612;2023-08-21T15:16:10;2.95;;;1.48;;
21901;SDS011;11115;46.038;14.612;2023-08-21T15:18:54;2.63;;;0.93;;
21901;SDS011;11115;46.038;14.612;2023-08-21T15:21:28;1.23;;;1.13;;
21901;SDS011;11115;46.038;14.612;2023-08-21T15:24:11;2.90;;;1.13;;
21901;SDS011;11115;46.038;14.612;2023-08-21T15:26:44;1.48;;;0.98;;
21901;SDS011;11115;46.038;14.612;2023-08-21T15:29:21;0.82;;;0.63;;
21901;SDS011;11115;46.038;14.612;2023-08-21T15:31:53;1.85;;;1.40;;
21901;SDS011;11115;46.038;14.612;2023-08-21T15:34:35;0.70;;;0.70;;
21901;SDS011;11115;46.038;14.612;2023-08-21T15:37:06;2.13;;;1.27;;
21901;SDS011;11115;46.038;14.612;2023-08-21T15:39:40;2.05;;;1.45;;
21901;SDS011;11115;46.038;14.612;2023-08-21T15:42:11;1.40;;;1.13;;
21901;SDS011;11115;46.038;14.612;2023-08-21T15:44:45;1.95;;;0.98;;
21901;SDS011;11115;46.038;14.612;2023-08-21T15:47:18;1.30;;;1.00;;
21901;SDS011;11115;46.038;14.612;2023-08-21T15:49:52;2.15;;;1.27;;
21901;SDS011;11115;46.038;14.612;2023-08-21T15:52:24;2.50;;;1.63;;
21901;SDS011;11115;46.038;14.612;2023-08-21T15:54:56;1.60;;;1.17;;
21901;SDS011;11115;46.038;14.612;2023-08-21T15:57:41;1.33;;;1.10;;
21901;SDS011;11115;46.038;14.612;2023-08-21T16:00:18;1.38;;;1.10;;